Time;durP1;ratioP1;P1;durP2;ratioP2;P2;SDS_P1;SDS_P2;PMS_P1;PMS_P2;Temp;Humidity;BMP_temperature;BMP_pressure;BME280_temperature;BME280_humidity;BME280_pressure;Samples;Min_cycle;Max_cycle;Signal;HPM_P1;HPM_P2
2020/12/14 00:00:02;;;;;;;2.4;1.9;;;;;;;;;;;;;
2020/12/14 00:02:27;;;;;;;3.1;1.4;;;;;;;;;;;;;
2020/12/14 00:04:53;;;;;;;2.1;1.8;;;;;;;;;;;;;
2020/12/14 00:07:18;;;;;;;3.5;2.1;;;;;;;;;;;;;
2020/12/14 00:09:43;;;;;;;4.9;2.3;;;;;;;;;;;;;
2020/12/14 00:12:10;;;;;;;3.4;1.6;;;;;;;;;;;;;
2020/12/14 00:14:33;;;;;;;2;1.7;;;;;;;;;;;;;
2020/12/14 00:16:58;;;;;;;2.1;1.8;;;;;;;;;;;;;
2020/12/14 00:19:23;;;;;;;1.7;1;;;;;;;;;;;;;
2020/12/14 00:21:49;;;;;;;1.9;1.7;;;;;;;;;;;;;
2020/12/14 00:24:15;;;;;;;2;1.7;;;;;;;;;;;;;
2020/12/14 00:26:40;;;;;;;1.9;1.1;;;;;;;;;;;;;
2020/12/14 00:29:05;;;;;;;2;1.4;;;;;;;;;;;;;
2020/12/14 00:31:30;;;;;;;2.1;1.2;;;;;;;;;;;;;
2020/12/14 00:33:55;;;;;;;1.2;1;;;;;;;;;;;;;
2020/12/14 00:36:20;;;;;;;1.5;1.3;;;;;;;;;;;;;
2020/12/14 00:38:45;;;;;;;2.3;1.2;;;;;;;;;;;;;
2020/12/14 00:41:11;;;;;;;3.1;1.4;;;;;;;;;;;;;
2020/12/14 00:43:36;;;;;;;1.6;1.4;;;;;;;;;;;;;
2020/12/14 00:46:01;;;;;;;3;1.7;;;;;;;;;;;;;
2020/12/14 00:48:26;;;;;;;3.4;1.9;;;;;;;;;;;;;
2020/12/14 00:50:51;;;;;;;2.8;1.3;;;;;;;;;;;;;
2020/12/14 00:53:16;;;;;;;4.5;2;;;;;;;;;;;;;
2020/12/14 00:55:42;;;;;;;1.3;1.2;;;;;;;;;;;;;
2020/12/14 00:58:07;;;;;;;1.5;1.4;;;;;;;;;;;;;
2020/12/14 01:00:34;;;;;;;3.9;1.5;;;;;;;;;;;;;
2020/12/14 01:03:00;;;;;;;2.1;1.3;;;;;;;;;;;;;
2020/12/14 01:05:25;;;;;;;1.7;1.1;;;;;;;;;;;;;
2020/12/14 01:07:50;;;;;;;1;0.8;;;;;;;;;;;;;
2020/12/14 01:10:16;;;;;;;0.6;0.6;;;;;;;;;;;;;
2020/12/14 01:12:41;;;;;;;1.7;1.3;;;;;;;;;;;;;
2020/12/14 01:15:09;;;;;;;4.6;1;;;;;;;;;;;;;
2020/12/14 01:17:34;;;;;;;2.1;1.3;;;;;;;;;;;;;
2020/12/14 01:19:59;;;;;;;3.1;1.4;;;;;;;;;;;;;
2020/12/14 01:22:24;;;;;;;1;1;;;;;;;;;;;;;
2020/12/14 01:24:50;;;;;;;1.8;1;;;;;;;;;;;;;
2020/12/14 01:27:15;;;;;;;1.2;0.6;;;;;;;;;;;;;
2020/12/14 01:29:40;;;;;;;1;0.7;;;;;;;;;;;;;
2020/12/14 01:32:05;;;;;;;0.6;0.5;;;;;;;;;;;;;
2020/12/14 01:34:31;;;;;;;2;1;;;;;;;;;;;;;
2020/12/14 01:36:56;;;;;;;0.8;0.8;;;;;;;;;;;;;
2020/12/14 01:39:21;;;;;;;1.3;1;;;;;;;;;;;;;
2020/12/14 01:41:46;;;;;;;0.8;0.7;;;;;;;;;;;;;
2020/12/14 01:44:11;;;;;;;0.7;0.7;;;;;;;;;;;;;
2020/12/14 01:46:38;;;;;;;0.9;0.8;;;;;;;;;;;;;
2020/12/14 01:49:03;;;;;;;2;0.9;;;;;;;;;;;;;
2020/12/14 01:51:28;;;;;;;2.2;0.8;;;;;;;;;;;;;
2020/12/14 01:53:53;;;;;;;0.7;0.7;;;;;;;;;;;;;
2020/12/14 01:56:19;;;;;;;0.7;0.6;;;;;;;;;;;;;
2020/12/14 01:58:44;;;;;;;0.4;0.4;;;;;;;;;;;;;
2020/12/14 02:01:09;;;;;;;0.4;0.4;;;;;;;;;;;;;
2020/12/14 02:03:37;;;;;;;2.7;1.3;;;;;;;;;;;;;
2020/12/14 02:06:05;;;;;;;1.4;1;;;;;;;;;;;;;
2020/12/14 02:08:35;;;;;;;1.1;1;;;;;;;;;;;;;
2020/12/14 02:11:01;;;;;;;2.1;1.2;;;;;;;;;;;;;
2020/12/14 02:13:26;;;;;;;0.8;0.8;;;;;;;;;;;;;
2020/12/14 02:16:00;;;;;;;1;0.8;;;;;;;;;;;;;
2020/12/14 02:18:29;;;;;;;0.7;0.7;;;;;;;;;;;;;
2020/12/14 02:21:02;;;;;;;0.8;0.7;;;;;;;;;;;;;
2020/12/14 02:23:30;;;;;;;0.6;0.6;;;;;;;;;;;;;
2020/12/14 02:25:55;;;;;;;0.9;0.9;;;;;;;;;;;;;
2020/12/14 02:28:20;;;;;;;0.8;0.8;;;;;;;;;;;;;
2020/12/14 02:30:47;;;;;;;0.8;0.8;;;;;;;;;;;;;
2020/12/14 02:33:16;;;;;;;1.6;0.9;;;;;;;;;;;;;
2020/12/14 02:35:51;;;;;;;0.8;0.8;;;;;;;;;;;;;
2020/12/14 02:38:16;;;;;;;1.9;0.7;;;;;;;;;;;;;
2020/12/14 02:40:46;;;;;;;1.1;0.9;;;;;;;;;;;;;
2020/12/14 02:43:11;;;;;;;0.6;0.6;;;;;;;;;;;;;
2020/12/14 02:45:44;;;;;;;1;0.8;;;;;;;;;;;;;
2020/12/14 02:48:09;;;;;;;0.9;0.6;;;;;;;;;;;;;
2020/12/14 02:50:36;;;;;;;1.2;1;;;;;;;;;;;;;
2020/12/14 02:53:00;;;;;;;1.5;0.7;;;;;;;;;;;;;
2020/12/14 02:55:29;;;;;;;0.6;0.5;;;;;;;;;;;;;
2020/12/14 02:57:54;;;;;;;1;0.8;;;;;;;;;;;;;
2020/12/14 03:00:27;;;;;;;1.7;0.9;;;;;;;;;;;;;
2020/12/14 03:02:55;;;;;;;1;0.8;;;;;;;;;;;;;
2020/12/14 03:05:24;;;;;;;3.6;1;;;;;;;;;;;;;
2020/12/14 03:07:51;;;;;;;1;0.8;;;;;;;;;;;;;
2020/12/14 03:10:25;;;;;;;1.7;1.2;;;;;;;;;;;;;
2020/12/14 03:12:53;;;;;;;0.6;0.5;;;;;;;;;;;;;
2020/12/14 03:15:18;;;;;;;1.1;0.6;;;;;;;;;;;;;
2020/12/14 03:17:43;;;;;;;0.5;0.5;;;;;;;;;;;;;
2020/12/14 03:20:14;;;;;;;0.7;0.5;;;;;;;;;;;;;
2020/12/14 03:22:39;;;;;;;1.1;1;;;;;;;;;;;;;
2020/12/14 03:25:12;;;;;;;0.6;0.6;;;;;;;;;;;;;
2020/12/14 03:27:42;;;;;;;0.8;0.6;;;;;;;;;;;;;
2020/12/14 03:30:10;;;;;;;0.7;0.7;;;;;;;;;;;;;
2020/12/14 03:32:33;;;;;;;0.6;0.6;;;;;;;;;;;;;
2020/12/14 03:34:58;;;;;;;0.9;0.7;;;;;;;;;;;;;
2020/12/14 03:37:24;;;;;;;0.4;0.4;;;;;;;;;;;;;
2020/12/14 03:39:57;;;;;;;1.2;0.8;;;;;;;;;;;;;
2020/12/14 03:42:31;;;;;;;2.2;1;;;;;;;;;;;;;
2020/12/14 03:45:02;;;;;;;0.6;0.6;;;;;;;;;;;;;
2020/12/14 03:47:27;;;;;;;0.9;0.6;;;;;;;;;;;;;
2020/12/14 03:49:52;;;;;;;0.6;0.5;;;;;;;;;;;;;
2020/12/14 03:52:23;;;;;;;0.7;0.7;;;;;;;;;;;;;
2020/12/14 03:54:50;;;;;;;0.9;0.8;;;;;;;;;;;;;
2020/12/14 03:57:19;;;;;;;0.6;0.6;;;;;;;;;;;;;
2020/12/14 03:59:53;;;;;;;0.5;0.5;;;;;;;;;;;;;
2020/12/14 04:02:33;;;;;;;0.6;0.6;;;;;;;0.69;94.55078;935.8633;;;;
2020/12/14 04:05:17;;;;;;;1.3;0.6;;;;;;;0.62;94.82422;935.8572;;;;
2020/12/14 04:07:50;;;;;;;0.5;0.5;;;;;;;0.7;94.0166;935.834;;;;
2020/12/14 04:10:30;;;;;;;1.5;0.8;;;;;;;0.53;95.06055;935.9113;;;;
2020/12/14 04:13:02;;;;;;;1.7;0.6;;;;;;;0.54;94.95313;935.8396;;;;
2020/12/14 04:15:33;;;;;;;3.9;0.8;;;;;;;0.1;96.4668;935.8362;;;;
2020/12/14 04:17:59;;;;;;;2;1.1;;;;;;;0.11;96.80566;935.858;;;;
2020/12/14 04:20:26;;;;;;;0.7;0.7;;;;;;;0.08;96.56348;935.8237;;;;
2020/12/14 04:22:52;;;;;;;1;0.8;;;;;;;0.02;97.30664;935.8233;;;;
2020/12/14 04:25:19;;;;;;;0.8;0.8;;;;;;;0.01;98.07324;935.8384;;;;
2020/12/14 04:27:50;;;;;;;0.5;0.4;;;;;;;0.25;97.21582;935.9309;;;;
2020/12/14 04:30:15;;;;;;;0.5;0.5;;;;;;;0.06;97.88477;935.8995;;;;
2020/12/14 04:32:44;;;;;;;0.6;0.6;;;;;;;0.1;97.31641;935.8412;;;;
2020/12/14 04:35:10;;;;;;;0.8;0.8;;;;;;;0.08;96.95508;935.9373;;;;
2020/12/14 04:37:38;;;;;;;4.4;1;;;;;;;0.13;96.51953;935.9364;;;;
2020/12/14 04:40:08;;;;;;;0.9;0.8;;;;;;;0.08;96.44043;935.8582;;;;
2020/12/14 04:42:49;;;;;;;1.1;0.9;;;;;;;0.01;96.94727;935.8839;;;;
2020/12/14 04:45:21;;;;;;;1.5;1;;;;;;;0.06;96.65039;935.8566;;;;
2020/12/14 04:47:58;;;;;;;1.4;1.1;;;;;;;0.15;96.25684;935.9418;;;;
2020/12/14 04:50:24;;;;;;;2;1;;;;;;;-0.05;96.55664;935.8522;;;;
2020/12/14 04:53:00;;;;;;;1.1;0.7;;;;;;;-0.09;97.35059;935.8498;;;;
2020/12/14 04:55:29;;;;;;;1.8;0.8;;;;;;;0.01;96.86035;935.8519;;;;
2020/12/14 04:58:00;;;;;;;0.4;0.4;;;;;;;0.08;96.86426;935.8613;;;;
2020/12/14 05:00:27;;;;;;;0.7;0.6;;;;;;;-0.07;97.63086;935.7525;;;;
2020/12/14 05:02:57;;;;;;;0.7;0.6;;;;;;;-0.1;97.31445;935.8984;;;;
2020/12/14 05:05:30;;;;;;;0.9;0.7;;;;;;;0.01;97.20605;935.8152;;;;
2020/12/14 05:08:17;;;;;;;0.6;0.6;;;;;;;0.03;96.92969;935.8488;;;;
2020/12/14 05:10:46;;;;;;;1.3;1;;;;;;;0.1;96.44434;935.8754;;;;
2020/12/14 05:13:13;;;;;;;7;1.4;;;;;;;-0.07;96.68652;935.9286;;;;
2020/12/14 05:15:47;;;;;;;8.3;2.2;;;;;;;-0.17;97.20898;935.8861;;;;
2020/12/14 05:18:15;;;;;;;2.3;1.4;;;;;;;-0.1;96.35449;935.9196;;;;
2020/12/14 05:20:45;;;;;;;1.9;1.4;;;;;;;-0.03;95.70313;935.8359;;;;
2020/12/14 05:23:12;;;;;;;1;0.9;;;;;;;-0.25;96.1416;935.8106;;;;
2020/12/14 05:25:42;;;;;;;1.9;1.1;;;;;;;-0.09;96.50195;935.8517;;;;
2020/12/14 05:28:14;;;;;;;2.9;1;;;;;;;-0.08;96.7041;935.8506;;;;
2020/12/14 05:30:43;;;;;;;1;0.9;;;;;;;-0.05;96.30078;935.7586;;;;
2020/12/14 05:33:08;;;;;;;0.5;0.5;;;;;;;0.26;94.85645;935.8304;;;;
2020/12/14 05:35:42;;;;;;;3.4;0.4;;;;;;;0.24;94.29297;935.8607;;;;
2020/12/14 05:38:13;;;;;;;0.5;0.4;;;;;;;0.51;93.49512;935.8705;;;;
2020/12/14 05:40:43;;;;;;;0.4;0.4;;;;;;;0.49;92.87793;935.8741;;;;
2020/12/14 05:43:17;;;;;;;1.3;1;;;;;;;0.44;92.89941;935.883;;;;
2020/12/14 05:45:55;;;;;;;5;0.9;;;;;;;0.24;93.3125;935.9204;;;;
2020/12/14 05:48:37;;;;;;;2.2;0.7;;;;;;;0.46;92.95898;935.8628;;;;
2020/12/14 05:51:04;;;;;;;0.5;0.5;;;;;;;0.27;93.48535;935.8551;;;;
2020/12/14 05:53:41;;;;;;;1.8;0.8;;;;;;;0.32;93.0625;935.8289;;;;
2020/12/14 05:56:07;;;;;;;0.6;0.6;;;;;;;0.32;93.15234;935.8837;;;;
2020/12/14 05:58:32;;;;;;;1.5;0.9;;;;;;;0.23;93.74316;935.832;;;;
2020/12/14 06:01:10;;;;;;;0.6;0.6;;;;;;;0.35;93.45898;935.843;;;;
2020/12/14 06:03:36;;;;;;;0.4;0.4;;;;;;;0.29;94.19434;935.8484;;;;
2020/12/14 06:06:04;;;;;;;2.5;1.1;;;;;;;0.33;93.48828;935.8201;;;;
2020/12/14 06:08:33;;;;;;;1.3;0.8;;;;;;;0.37;92.82715;935.7748;;;;
2020/12/14 06:11:20;;;;;;;1;0.7;;;;;;;0.39;92.35352;935.8219;;;;
2020/12/14 06:13:48;;;;;;;1.1;1;;;;;;;0.32;91.89258;935.7955;;;;
2020/12/14 06:16:14;;;;;;;6.8;2;;;;;;;0.23;92.0625;935.8072;;;;
2020/12/14 06:18:39;;;;;;;0.8;0.8;;;;;;;0.19;92.66699;935.7622;;;;
2020/12/14 06:21:09;;;;;;;1.6;1;;;;;;;0.25;92.97754;935.9081;;;;
2020/12/14 06:23:34;;;;;;;1.4;1.1;;;;;;;0.23;92.43945;935.8853;;;;
2020/12/14 06:26:06;;;;;;;0.9;0.9;;;;;;;-0.1;93.59473;935.9197;;;;
2020/12/14 06:28:43;;;;;;;2.3;1.4;;;;;;;0.08;93.56641;935.9167;;;;
2020/12/14 06:31:13;;;;;;;2.3;1.6;;;;;;;0.14;94.21484;935.7951;;;;
2020/12/14 06:33:38;;;;;;;1.1;0.9;;;;;;;-0.06;94.74805;935.8368;;;;
2020/12/14 06:36:08;;;;;;;0.5;0.5;;;;;;;0.12;93.40918;935.8242;;;;
2020/12/14 06:38:33;;;;;;;1.7;1;;;;;;;0.09;93.8916;935.8611;;;;
2020/12/14 06:41:09;;;;;;;1.4;1.2;;;;;;;0.22;92.26074;935.8365;;;;
2020/12/14 06:43:38;;;;;;;1.3;1;;;;;;;0.14;93.02344;935.8546;;;;
2020/12/14 06:46:14;;;;;;;1.8;1.3;;;;;;;0.28;92.49512;935.9119;;;;
2020/12/14 06:48:46;;;;;;;1.1;0.9;;;;;;;0.43;91.88281;935.8819;;;;
2020/12/14 06:51:21;;;;;;;1.1;0.7;;;;;;;0.28;91.58105;935.8822;;;;
2020/12/14 06:53:47;;;;;;;2.9;1;;;;;;;0.27;91.62402;935.9139;;;;
2020/12/14 06:56:15;;;;;;;0.7;0.7;;;;;;;0.21;92.14746;935.8972;;;;
2020/12/14 06:58:41;;;;;;;0.8;0.6;;;;;;;0.25;92.63281;935.9316;;;;
2020/12/14 07:01:12;;;;;;;1.1;1;;;;;;;0.25;92.72363;935.9669;;;;
2020/12/14 07:03:38;;;;;;;1.8;1.2;;;;;;;-0.11;93.84668;935.9825;;;;
2020/12/14 07:06:10;;;;;;;1.4;1.2;;;;;;;0.08;93.37891;935.9461;;;;
2020/12/14 07:08:39;;;;;;;2.7;1.3;;;;;;;-0.02;93.61328;935.9672;;;;
2020/12/14 07:11:08;;;;;;;2.6;1.6;;;;;;;0.01;93.17188;935.9934;;;;
2020/12/14 07:13:33;;;;;;;2.8;1.9;;;;;;;0.13;92.57715;936.0031;;;;
2020/12/14 07:15:59;;;;;;;1.2;1;;;;;;;0.09;92.89941;935.9487;;;;
2020/12/14 07:18:31;;;;;;;4.3;1.2;;;;;;;0.34;91.88477;936.0505;;;;
2020/12/14 07:21:03;;;;;;;1.7;1.1;;;;;;;0.17;91.55762;935.9805;;;;
2020/12/14 07:23:23;;;;;;;1;0.8;;;;;;;0.4;91.31738;936.072;;;;
2020/12/14 07:25:48;;;;;;;0.5;0.5;;;;;;;0.25;90.90527;936.1038;;;;
2020/12/14 07:28:14;;;;;;;0.8;0.8;;;;;;;0.25;91.16309;936.0781;;;;
2020/12/14 07:30:42;;;;;;;1.6;0.9;;;;;;;0.16;91.70117;936.0862;;;;
2020/12/14 07:33:07;;;;;;;0.9;0.8;;;;;;;0.42;90.21875;936.1139;;;;
2020/12/14 07:35:38;;;;;;;0.6;0.6;;;;;;;0.37;90.56445;936.0881;;;;
2020/12/14 07:38:01;;;;;;;2.6;1.3;;;;;;;0.48;90.31934;936.0868;;;;
2020/12/14 07:40:28;;;;;;;5.6;2.8;;;;;;;0.45;90.04785;936.19;;;;
2020/12/14 07:42:55;;;;;;;2.7;0.9;;;;;;;0.21;91.96875;936.2003;;;;
2020/12/14 07:45:18;;;;;;;4.1;1.1;;;;;;;0.32;91.63574;936.2191;;;;
2020/12/14 07:47:43;;;;;;;2.5;1.4;;;;;;;0.42;91.36719;936.2269;;;;
2020/12/14 07:50:09;;;;;;;1.5;1.1;;;;;;;0.54;89.80957;936.1496;;;;
2020/12/14 07:52:37;;;;;;;4.5;2.9;;;;;;;0.64;89.63086;936.1896;;;;
2020/12/14 07:55:03;;;;;;;1.3;1;;;;;;;0.49;90.11133;936.1877;;;;
2020/12/14 07:57:37;;;;;;;2.1;1.3;;;;;;;0.28;91.6709;936.2689;;;;
2020/12/14 08:00:08;;;;;;;2.5;1.7;;;;;;;0.37;91.79102;936.2573;;;;
2020/12/14 08:02:35;;;;;;;5.8;2.9;;;;;;;0.33;91.45898;936.3144;;;;
2020/12/14 08:05:00;;;;;;;7.9;3.4;;;;;;;0.26;91.88965;936.2906;;;;
2020/12/14 08:07:26;;;;;;;5.9;3.3;;;;;;;0.8;91.29297;936.3018;;;;
2020/12/14 08:09:56;;;;;;;6.5;3.6;;;;;;;1.41;87.88281;936.1819;;;;
2020/12/14 08:12:21;;;;;;;5.7;3.3;;;;;;;2.18;84.0332;936.1566;;;;
2020/12/14 08:14:47;;;;;;;4.8;2;;;;;;;3.1;79.13281;936.2211;;;;
2020/12/14 08:17:13;;;;;;;4.6;2.5;;;;;;;3.89;76.59277;936.2012;;;;
2020/12/14 08:19:44;;;;;;;4.8;2.4;;;;;;;4.38;74.01367;936.1951;;;;
2020/12/14 08:22:08;;;;;;;5.9;2.6;;;;;;;4.96;70.47363;936.2106;;;;
2020/12/14 08:24:34;;;;;;;2.1;1.7;;;;;;;5.4;68.42578;936.2361;;;;
2020/12/14 08:27:01;;;;;;;2;1.7;;;;;;;5.34;68.30176;936.1683;;;;
2020/12/14 08:29:31;;;;;;;3.5;1.9;;;;;;;6.07;66.20508;936.1792;;;;
2020/12/14 08:31:58;;;;;;;3.9;1.9;;;;;;;6;66.28418;936.2162;;;;
2020/12/14 08:34:22;;;;;;;3.8;1.5;;;;;;;6.15;65.77734;936.2175;;;;
2020/12/14 08:36:47;;;;;;;1.9;1.4;;;;;;;6.13;66.07813;936.1688;;;;
2020/12/14 08:39:12;;;;;;;3.9;2.4;;;;;;;4.94;70.04297;936.2173;;;;
2020/12/14 08:41:39;;;;;;;2.6;1.3;;;;;;;3.6;75.04785;936.2369;;;;
2020/12/14 08:44:05;;;;;;;2.5;1.2;;;;;;;3.23;77.29102;936.2625;;;;
2020/12/14 08:46:32;;;;;;;3.2;1.8;;;;;;;2.53;83.64355;936.1492;;;;
2020/12/14 08:48:59;;;;;;;1.6;1.2;;;;;;;2.54;83.87012;936.1961;;;;
2020/12/14 08:51:27;;;;;;;9.2;1.1;;;;;;;2.89;82.58203;936.2034;;;;
2020/12/14 08:53:52;;;;;;;1.5;1;;;;;;;2.89;81.32617;936.2034;;;;
2020/12/14 08:56:19;;;;;;;2.4;1.6;;;;;;;2.66;83.73633;936.2358;;;;
2020/12/14 08:58:45;;;;;;;6.7;2.8;;;;;;;2.7;81.62598;936.1738;;;;
2020/12/14 09:01:15;;;;;;;3.9;2.1;;;;;;;2.72;83.01953;936.2484;;;;
2020/12/14 09:03:40;;;;;;;3.1;1.8;;;;;;;2.86;84.62988;936.2497;;;;
2020/12/14 09:06:07;;;;;;;3;1.4;;;;;;;2.88;82.56934;936.1866;;;;
2020/12/14 09:08:32;;;;;;;2;1.2;;;;;;;2.85;81.93652;936.188;;;;
2020/12/14 09:11:03;;;;;;;0.9;0.8;;;;;;;2.86;79.59375;936.2182;;;;
2020/12/14 09:13:28;;;;;;;3.1;1.6;;;;;;;2.86;80.98438;936.1584;;;;
2020/12/14 09:16:00;;;;;;;1.2;1;;;;;;;2.7;80.48242;936.2845;;;;
2020/12/14 09:18:20;;;;;;;2;1;;;;;;;2.56;80.33203;936.2566;;;;
2020/12/14 09:20:45;;;;;;;1.9;1;;;;;;;2.71;80.62988;936.267;;;;
2020/12/14 09:23:10;;;;;;;2;1.3;;;;;;;2.66;81.41602;936.2258;;;;
2020/12/14 09:25:36;;;;;;;1.5;1.1;;;;;;;2.77;81.12305;936.231;;;;
2020/12/14 09:28:01;;;;;;;1.3;0.8;;;;;;;2.66;78.96094;936.2273;;;;
2020/12/14 09:30:26;;;;;;;1;0.7;;;;;;;2.9;75.40625;936.1614;;;;
2020/12/14 09:32:53;;;;;;;0.3;0.3;;;;;;;3.17;75.10449;936.1085;;;;
2020/12/14 09:35:18;;;;;;;0.1;0.1;;;;;;;3.21;74.58496;936.1714;;;;
2020/12/14 09:37:43;;;;;;;0.6;0.4;;;;;;;3.44;75.13184;936.196;;;;
2020/12/14 09:40:08;;;;;;;0.1;0.1;;;;;;;3.35;74.37305;936.1613;;;;
2020/12/14 09:42:36;;;;;;;0.2;0.2;;;;;;;3.41;74.5752;936.2147;;;;
2020/12/14 09:45:01;;;;;;;0.2;0.2;;;;;;;3.52;74.99805;936.2347;;;;
2020/12/14 09:47:27;;;;;;;1.4;0.5;;;;;;;3.72;75.87793;936.2051;;;;
2020/12/14 09:49:52;;;;;;;0.6;0.5;;;;;;;3.52;76.20117;936.2292;;;;
2020/12/14 09:52:18;;;;;;;0.7;0.6;;;;;;;3.74;77.16211;936.2437;;;;
2020/12/14 09:54:43;;;;;;;2.2;1.3;;;;;;;3.46;78.57129;936.2281;;;;
2020/12/14 09:57:09;;;;;;;1.8;1;;;;;;;3.49;78.68848;936.1478;;;;
2020/12/14 09:59:34;;;;;;;1;0.8;;;;;;;3.52;78.18848;936.1472;;;;
2020/12/14 10:02:01;;;;;;;1.5;0.9;;;;;;;3.72;77.7207;936.1658;;;;
2020/12/14 10:04:26;;;;;;;6.6;1.7;;;;;;;3.88;76.83984;936.149;;;;
2020/12/14 10:06:52;;;;;;;1.9;1.5;;;;;;;3.87;76.31738;936.1375;;;;
2020/12/14 10:09:17;;;;;;;1.4;0.9;;;;;;;3.88;75.03906;936.082;;;;
2020/12/14 10:11:42;;;;;;;0.7;0.7;;;;;;;3.87;75.57617;936.0792;;;;
2020/12/14 10:14:08;;;;;;;0.7;0.7;;;;;;;4.17;76.125;936.0461;;;;
2020/12/14 10:16:36;;;;;;;1;0.9;;;;;;;4.23;75.16699;935.9881;;;;
2020/12/14 10:19:00;;;;;;;0.9;0.8;;;;;;;4.07;73.73633;936.0181;;;;
2020/12/14 10:21:28;;;;;;;1.6;0.9;;;;;;;4.28;74.24414;935.9702;;;;
2020/12/14 10:23:54;;;;;;;1.7;0.7;;;;;;;4.44;73.84473;935.8826;;;;
2020/12/14 10:26:20;;;;;;;0.9;0.6;;;;;;;4.61;70.06543;935.9498;;;;
2020/12/14 10:28:44;;;;;;;0.7;0.6;;;;;;;4.71;69.08105;935.8983;;;;
2020/12/14 10:31:09;;;;;;;0.4;0.3;;;;;;;4.82;68.30957;935.8621;;;;
2020/12/14 10:33:34;;;;;;;0.6;0.5;;;;;;;4.93;68.96973;935.8217;;;;
2020/12/14 10:35:59;;;;;;;0.3;0.3;;;;;;;5.01;68.21582;935.8178;;;;
2020/12/14 10:38:24;;;;;;;0.4;0.3;;;;;;;4.96;66.84473;935.8044;;;;
2020/12/14 10:40:52;;;;;;;0.5;0.4;;;;;;;5.27;66.91406;935.7031;;;;
2020/12/14 10:43:17;;;;;;;0.3;0.3;;;;;;;5.41;67.40039;935.8206;;;;
2020/12/14 10:45:47;;;;;;;0.3;0.3;;;;;;;5.53;67.59961;935.8226;;;;
2020/12/14 10:48:15;;;;;;;0.3;0.3;;;;;;;5.6;67.08105;935.7375;;;;
2020/12/14 10:50:40;;;;;;;0.7;0.6;;;;;;;5.91;67.03711;935.6199;;;;
2020/12/14 10:53:07;;;;;;;1.3;0.5;;;;;;;6.1;67.01172;935.735;;;;
2020/12/14 10:55:33;;;;;;;0.6;0.5;;;;;;;6.08;65.87891;935.6747;;;;
2020/12/14 10:57:58;;;;;;;0.3;0.2;;;;;;;6.24;66.17383;935.5952;;;;
2020/12/14 11:00:23;;;;;;;2.5;1.1;;;;;;;6.29;66.66895;935.6113;;;;
2020/12/14 11:02:49;;;;;;;2.5;1.6;;;;;;;6.21;66.35156;935.6216;;;;
2020/12/14 11:05:14;;;;;;;1.4;1;;;;;;;6.38;67.44043;935.6867;;;;
2020/12/14 11:07:40;;;;;;;3.6;2.1;;;;;;;6.5;67.65137;935.6594;;;;
2020/12/14 11:10:05;;;;;;;4.5;1.7;;;;;;;6.31;67.13477;935.6449;;;;
2020/12/14 11:12:32;;;;;;;16.7;1.5;;;;;;;6.05;66.15625;935.6257;;;;
2020/12/14 11:14:57;;;;;;;1.5;0.7;;;;;;;6.19;63.6123;935.699;;;;
2020/12/14 11:17:25;;;;;;;2.4;0.6;;;;;;;6.23;64.40918;935.6244;;;;
2020/12/14 11:19:50;;;;;;;5.8;0.7;;;;;;;6.53;64.93066;935.5644;;;;
2020/12/14 11:22:15;;;;;;;0.4;0.3;;;;;;;6.27;64.06543;935.558;;;;
2020/12/14 11:24:44;;;;;;;7.1;0.7;;;;;;;6.51;65.25391;935.537;;;;
2020/12/14 11:27:09;;;;;;;0.6;0.4;;;;;;;6.5;65.95605;935.5195;;;;
2020/12/14 11:29:34;;;;;;;8.1;1.5;;;;;;;6.85;65.00098;935.53;;;;
2020/12/14 11:31:59;;;;;;;5.8;1.4;;;;;;;6.86;66.23633;935.5183;;;;
2020/12/14 11:34:25;;;;;;;1.7;1;;;;;;;6.89;64.98535;935.5386;;;;
2020/12/14 11:36:50;;;;;;;2.8;1.6;;;;;;;6.85;65.86133;935.4808;;;;
2020/12/14 11:39:17;;;;;;;3.1;0.9;;;;;;;6.75;66.3877;935.4533;;;;
2020/12/14 11:41:42;;;;;;;5.1;1.5;;;;;;;6.85;65.375;935.3709;;;;
2020/12/14 11:44:08;;;;;;;2.2;1.1;;;;;;;6.94;65.24121;935.3971;;;;
2020/12/14 11:46:33;;;;;;;1.8;1;;;;;;;6.78;63.68848;935.325;;;;
2020/12/14 11:48:59;;;;;;;1.9;1.1;;;;;;;7.03;65.05078;935.3207;;;;
2020/12/14 11:51:24;;;;;;;2.5;1.2;;;;;;;7.01;64.08594;935.2473;;;;
2020/12/14 11:53:51;;;;;;;7;1.7;;;;;;;7.06;64.47852;935.3038;;;;
2020/12/14 11:56:16;;;;;;;2.4;1.2;;;;;;;7.42;64.55469;935.2573;;;;
2020/12/14 11:58:42;;;;;;;3.3;1.5;;;;;;;7.76;63.50586;935.2748;;;;
2020/12/14 12:01:09;;;;;;;6.1;1.7;;;;;;;7.63;63.73535;935.3061;;;;
2020/12/14 12:03:34;;;;;;;5.3;1.8;;;;;;;7.94;63.56641;935.3261;;;;
2020/12/14 12:05:59;;;;;;;4.2;1.4;;;;;;;7.7;65.0293;935.3088;;;;
2020/12/14 12:08:24;;;;;;;1.4;1.2;;;;;;;7.62;64.46094;935.3179;;;;
2020/12/14 12:10:51;;;;;;;1.7;1.4;;;;;;;7.39;65.88965;935.2668;;;;
2020/12/14 12:13:16;;;;;;;1.8;1.3;;;;;;;7.39;67.17969;935.262;;;;
2020/12/14 12:15:43;;;;;;;2.1;1;;;;;;;7.16;64.71875;935.2928;;;;
2020/12/14 12:18:08;;;;;;;8.7;1.8;;;;;;;7.19;64.75879;935.2831;;;;
2020/12/14 12:20:33;;;;;;;4.5;2;;;;;;;7.32;64.69922;935.2856;;;;
2020/12/14 12:22:58;;;;;;;7.5;2;;;;;;;7.31;65.8418;935.2908;;;;
2020/12/14 12:25:24;;;;;;;2.4;1;;;;;;;7.54;63.96094;935.3076;;;;
2020/12/14 12:27:49;;;;;;;1.7;0.9;;;;;;;7.54;63.14355;935.2894;;;;
2020/12/14 12:30:20;;;;;;;6.5;2.2;;;;;;;7.6;64.08301;935.2419;;;;
2020/12/14 12:32:49;;;;;;;3.1;1.7;;;;;;;7.6;63.59668;935.2729;;;;
2020/12/14 12:35:14;;;;;;;1.3;0.9;;;;;;;7.74;63.00293;935.2475;;;;
2020/12/14 12:37:43;;;;;;;3.3;0.9;;;;;;;8.01;63.60938;935.2791;;;;
2020/12/14 12:40:09;;;;;;;3.3;1.8;;;;;;;7.98;62.62988;935.2561;;;;
2020/12/14 12:42:34;;;;;;;11.7;1.8;;;;;;;7.84;62.50684;935.2255;;;;
2020/12/14 12:44:59;;;;;;;6.8;2.4;;;;;;;7.88;62.8418;935.1404;;;;
2020/12/14 12:47:25;;;;;;;3.7;1.4;;;;;;;7.73;63.27441;935.2569;;;;
2020/12/14 12:49:50;;;;;;;7;1.6;;;;;;;7.8;64.30469;935.2127;;;;
2020/12/14 12:52:16;;;;;;;14.9;2.6;;;;;;;7.84;65.07031;935.2762;;;;
2020/12/14 12:54:41;;;;;;;16.1;1.3;;;;;;;8.03;63.9541;935.173;;;;
2020/12/14 12:57:07;;;;;;;2.3;1.1;;;;;;;8.12;62.55859;935.1583;;;;
2020/12/14 12:59:32;;;;;;;3.8;1;;;;;;;8.01;63.04395;935.1267;;;;
2020/12/14 13:01:59;;;;;;;1.8;1;;;;;;;8.03;62.53516;935.1208;;;;
2020/12/14 13:04:24;;;;;;;16;0.9;;;;;;;8.09;62.6582;935.101;;;;
2020/12/14 13:06:50;;;;;;;1.3;0.6;;;;;;;8.03;62.22852;935.1239;;;;
2020/12/14 13:09:15;;;;;;;1.9;1.1;;;;;;;8.34;62.4209;935.0516;;;;
2020/12/14 13:11:43;;;;;;;3.3;1.3;;;;;;;8.21;61.19922;935.1067;;;;
2020/12/14 13:14:08;;;;;;;0.9;0.8;;;;;;;8.11;61.52539;935.0726;;;;
2020/12/14 13:16:33;;;;;;;11.9;2;;;;;;;8.36;61.71973;934.9519;;;;
2020/12/14 13:18:58;;;;;;;3.6;1.1;;;;;;;8.46;60.89355;935.0224;;;;
2020/12/14 13:21:24;;;;;;;2.6;1.4;;;;;;;8.53;61.23242;935.0303;;;;
2020/12/14 13:23:49;;;;;;;2;1;;;;;;;8.76;59.96973;935.0316;;;;
2020/12/14 13:26:15;;;;;;;1.3;0.9;;;;;;;8.79;59.34766;934.8652;;;;
2020/12/14 13:28:40;;;;;;;2;0.7;;;;;;;9.66;57.41602;934.9348;;;;
2020/12/14 13:31:09;;;;;;;9.2;1.2;;;;;;;10.39;54.69434;934.9028;;;;
2020/12/14 13:33:34;;;;;;;2.9;1;;;;;;;11.36;52.24414;934.8702;;;;
2020/12/14 13:35:59;;;;;;;0.8;0.6;;;;;;;11.35;49.70215;934.8335;;;;
2020/12/14 13:38:24;;;;;;;1.1;0.7;;;;;;;12.28;50.15332;934.8527;;;;
2020/12/14 13:40:53;;;;;;;3.6;0.9;;;;;;;12.66;49.72754;934.8567;;;;
2020/12/14 13:43:18;;;;;;;1.9;1.1;;;;;;;11.69;51.7207;934.7695;;;;
2020/12/14 13:45:43;;;;;;;1.3;1.1;;;;;;;11.63;52.93945;934.7528;;;;
2020/12/14 13:48:08;;;;;;;3.2;1.1;;;;;;;10.79;55.93359;934.7137;;;;
2020/12/14 13:50:36;;;;;;;2.8;1.2;;;;;;;10.31;57.62891;934.7704;;;;
2020/12/14 13:53:01;;;;;;;1.8;1.2;;;;;;;10.13;58.1875;934.8358;;;;
2020/12/14 13:55:29;;;;;;;2.5;1;;;;;;;9.23;60.68359;934.8466;;;;
2020/12/14 13:57:51;;;;;;;2.2;1.4;;;;;;;8.61;63.23242;934.8868;;;;
2020/12/14 14:00:23;;;;;;;1.3;0.9;;;;;;;8.38;64.36914;934.8839;;;;
2020/12/14 14:02:48;;;;;;;7.7;1.7;;;;;;;7.74;66.41797;934.967;;;;
2020/12/14 14:05:13;;;;;;;2.9;1.6;;;;;;;7.7;66.91211;934.9355;;;;
2020/12/14 14:07:38;;;;;;;3.5;1.4;;;;;;;7.33;68.87012;934.9601;;;;
2020/12/14 14:10:05;;;;;;;3.1;1.5;;;;;;;7.13;69.8916;934.948;;;;
2020/12/14 14:12:29;;;;;;;5.4;1.3;;;;;;;6.9;71.56445;934.9991;;;;
2020/12/14 14:14:55;;;;;;;3.2;1.9;;;;;;;6.48;74.14063;935.0033;;;;
2020/12/14 14:17:20;;;;;;;3.4;2;;;;;;;6.31;75.39941;935.0006;;;;
2020/12/14 14:19:48;;;;;;;6;2.2;;;;;;;6.06;76.40723;934.9977;;;;
2020/12/14 14:22:12;;;;;;;4.1;2.2;;;;;;;6.22;75.49805;935.0984;;;;
2020/12/14 14:24:39;;;;;;;4.5;2.5;;;;;;;5.98;75.87207;935.0983;;;;
2020/12/14 14:27:04;;;;;;;6.5;2.5;;;;;;;5.81;76.11426;935.0454;;;;
2020/12/14 14:29:33;;;;;;;4.5;2.6;;;;;;;6.01;75.39258;935.1459;;;;
2020/12/14 14:32:03;;;;;;;3.4;2.2;;;;;;;6.16;74.8418;935.0944;;;;
2020/12/14 14:34:27;;;;;;;3.9;2.5;;;;;;;6.2;74.83789;934.9973;;;;
2020/12/14 14:36:53;;;;;;;2.8;1.6;;;;;;;5.93;74.89258;935.0909;;;;
2020/12/14 14:39:19;;;;;;;4.6;2.4;;;;;;;5.89;75.16797;935.0914;;;;
2020/12/14 14:41:46;;;;;;;6.6;2.6;;;;;;;5.84;75.87012;935.027;;;;
2020/12/14 14:44:11;;;;;;;6.9;3.2;;;;;;;5.82;76.01367;935.1001;;;;
2020/12/14 14:46:37;;;;;;;5.1;2.8;;;;;;;5.83;76.10547;935.0639;;;;
2020/12/14 14:49:02;;;;;;;3.8;2.3;;;;;;;5.51;77.78711;935.1359;;;;
2020/12/14 14:51:27;;;;;;;5.3;2.2;;;;;;;5.56;78.13477;935.1102;;;;
2020/12/14 14:53:52;;;;;;;4.8;2.6;;;;;;;5.47;78.61426;934.9937;;;;
2020/12/14 14:56:18;;;;;;;6.9;2.4;;;;;;;5.29;80.12793;935.062;;;;
2020/12/14 14:58:44;;;;;;;4;2;;;;;;;5.31;80.24219;935.0694;;;;
2020/12/14 15:01:12;;;;;;;6;2.5;;;;;;;5.13;81.25879;935.0175;;;;
2020/12/14 15:03:37;;;;;;;4.4;2.2;;;;;;;5.03;81.74707;934.9575;;;;
2020/12/14 15:06:03;;;;;;;4.4;2.5;;;;;;;5.17;80.69043;934.9885;;;;
2020/12/14 15:08:28;;;;;;;21.9;13.3;;;;;;;5.4;78.30762;934.9633;;;;
2020/12/14 15:10:54;;;;;;;2.4;1.7;;;;;;;5.66;77.41895;934.9083;;;;
2020/12/14 15:13:20;;;;;;;3.7;2.3;;;;;;;5.62;76.55469;934.823;;;;
2020/12/14 15:15:47;;;;;;;11;3.9;;;;;;;5.85;73.81641;934.9719;;;;
2020/12/14 15:18:12;;;;;;;10.8;5;;;;;;;5.52;75.56445;934.8992;;;;
2020/12/14 15:20:38;;;;;;;10.6;5.9;;;;;;;5.4;78.31934;935.0273;;;;
2020/12/14 15:23:03;;;;;;;9.6;6.1;;;;;;;5.26;79.08398;935.0122;;;;
2020/12/14 15:25:29;;;;;;;12.8;5.9;;;;;;;5.17;80.06055;934.9507;;;;
2020/12/14 15:27:54;;;;;;;9.8;4.9;;;;;;;5.12;80.92969;935.0433;;;;
2020/12/14 15:30:21;;;;;;;11.4;5.6;;;;;;;5.1;80.99219;935.0349;;;;
2020/12/14 15:32:46;;;;;;;10.5;4.3;;;;;;;4.83;82.18066;935.1509;;;;
2020/12/14 15:35:13;;;;;;;7.9;4.8;;;;;;;4.93;81.85059;935.1747;;;;
2020/12/14 15:37:37;;;;;;;7.1;4.9;;;;;;;4.63;82.59277;935.2172;;;;
2020/12/14 15:40:03;;;;;;;10.3;4.1;;;;;;;4.47;83.27246;935.2158;;;;
2020/12/14 15:42:30;;;;;;;5.1;3.3;;;;;;;4.59;82.88965;935.2506;;;;
2020/12/14 15:44:55;;;;;;;5.5;3.2;;;;;;;4.53;83.30762;935.2964;;;;
2020/12/14 15:47:22;;;;;;;9.2;4.4;;;;;;;4.68;82.64648;935.2547;;;;
2020/12/14 15:49:47;;;;;;;6.3;3.7;;;;;;;4.97;81.75977;935.2445;;;;